Time;durP1;ratioP1;P1;durP2;ratioP2;P2;SDS_P1;SDS_P2;PMS_P1;PMS_P2;Temp;Humidity;BMP_temperature;BMP_pressure;BME280_temperature;BME280_humidity;BME280_pressure;Samples;Min_cycle;Max_cycle;Signal;HPM_P1;HPM_P2
2022/03/07 00:01:50;;;;;;;14.93;11.20;;;-1.50;93.50;-1.30;96890.00;;;;5102271;28;20433;-67
2022/03/07 00:04:39;;;;;;;17.40;11.57;;;-1.60;93.40;-1.40;96893.00;;;;5105172;28;20449;-66
2022/03/07 00:07:28;;;;;;;17.83;12.30;;;-1.60;93.60;-1.40;96893.00;;;;5107640;28;20424;-66
2022/03/07 00:10:19;;;;;;;12.17;10.07;;;-1.60;93.50;-1.50;96892.00;;;;5109017;28;20429;-66
2022/03/07 00:13:08;;;;;;;15.00;11.43;;;-1.70;93.90;-1.60;96896.00;;;;5103583;28;20416;-66
2022/03/07 00:15:57;;;;;;;13.90;10.13;;;-1.80;94.10;-1.50;96912.00;;;;5107435;28;20431;-66
2022/03/07 00:18:47;;;;;;;15.40;11.30;;;-1.80;94.30;-1.70;96900.00;;;;5102485;28;20437;-66
2022/03/07 00:21:37;;;;;;;15.47;11.90;;;-1.80;94.60;-1.60;96903.00;;;;5101160;27;20435;-66
2022/03/07 00:24:25;;;;;;;15.43;11.70;;;-1.90;94.70;-1.80;96908.00;;;;5102375;28;20819;-66
2022/03/07 00:27:14;;;;;;;17.73;12.30;;;-1.90;94.80;-1.60;96909.00;;;;5107740;28;20417;-66
2022/03/07 00:30:04;;;;;;;15.13;10.63;;;-2.00;94.70;-1.70;96914.00;;;;5108141;28;20414;-66
2022/03/07 00:32:53;;;;;;;14.73;9.73;;;-2.00;95.10;-1.80;96913.00;;;;5108878;28;20429;-66
2022/03/07 00:35:43;;;;;;;18.23;11.97;;;-1.90;95.10;-1.80;96917.00;;;;5106073;28;20457;-67
2022/03/07 00:38:32;;;;;;;26.17;12.33;;;-2.00;95.30;-2.10;96922.00;;;;5103727;28;20947;-66
2022/03/07 00:41:20;;;;;;;17.43;11.33;;;-2.10;95.80;-2.00;96908.00;;;;5103800;28;20447;-66
2022/03/07 00:44:09;;;;;;;17.67;12.87;;;-2.10;95.80;-1.90;96923.00;;;;5111487;28;20449;-66
2022/03/07 00:46:58;;;;;;;17.23;12.57;;;-2.10;95.90;-2.00;96910.00;;;;5108232;28;20408;-66
2022/03/07 00:49:47;;;;;;;16.27;12.23;;;-2.20;96.20;-2.00;96920.00;;;;5111775;28;20429;-66
2022/03/07 00:52:37;;;;;;;18.20;11.40;;;-2.20;96.10;-1.90;96921.00;;;;5110481;28;20425;-66
2022/03/07 00:55:25;;;;;;;14.87;10.70;;;-2.20;96.30;-2.00;96916.00;;;;5109035;28;20867;-66
2022/03/07 00:58:15;;;;;;;17.77;11.53;;;-2.30;96.30;-2.30;96908.00;;;;5112646;27;20947;-66
2022/03/07 01:01:04;;;;;;;16.97;11.70;;;-2.30;96.60;-2.40;96915.00;;;;5106327;28;20417;-66
2022/03/07 01:03:53;;;;;;;15.50;11.43;;;-2.40;96.80;-2.70;96903.00;;;;5102466;28;20486;-66
2022/03/07 01:06:42;;;;;;;17.97;11.17;;;-2.50;97.40;-2.60;96904.00;;;;5114174;27;20418;-66
2022/03/07 01:09:33;;;;;;;17.23;11.87;;;-2.60;98.00;-2.80;96900.00;;;;5106655;28;20409;-66
2022/03/07 01:12:22;;;;;;;18.23;11.63;;;-2.70;98.50;-2.60;96901.00;;;;5111259;28;20511;-66
2022/03/07 01:15:11;;;;;;;14.50;11.27;;;-2.70;98.80;-2.50;96903.00;;;;5111292;28;20479;-67
2022/03/07 01:18:00;;;;;;;17.13;11.93;;;-2.70;99.00;-2.50;96891.00;;;;5110869;28;20429;-66
2022/03/07 01:20:49;;;;;;;14.33;11.87;;;-2.70;99.00;-2.80;96885.00;;;;5111989;27;20425;-66
2022/03/07 01:23:40;;;;;;;17.57;12.83;;;-2.70;99.60;-2.90;96888.00;;;;5111783;28;20444;-66
2022/03/07 01:26:30;;;;;;;16.50;10.37;;;-2.80;99.90;-3.10;96891.00;;;;5104379;28;20804;-66
2022/03/07 01:29:19;;;;;;;15.73;10.60;;;-2.90;99.90;-2.90;96891.00;;;;5111590;28;20424;-66
2022/03/07 01:32:08;;;;;;;14.57;11.27;;;-3.00;99.90;-2.80;96884.00;;;;5105002;28;20417;-66
2022/03/07 01:34:57;;;;;;;22.73;11.80;;;-3.00;99.90;-3.10;96884.00;;;;5107061;28;20487;-66
2022/03/07 01:37:46;;;;;;;15.27;10.17;;;-3.10;99.90;-3.80;96872.00;;;;5110426;28;20872;-67
2022/03/07 01:40:34;;;;;;;15.00;9.33;;;-3.20;99.90;-3.40;96871.00;;;;5111366;27;20463;-67
2022/03/07 01:43:25;;;;;;;16.93;10.17;;;-3.20;99.90;-3.30;96868.00;;;;5110770;27;20432;-65
2022/03/07 01:46:13;;;;;;;12.23;10.43;;;-3.20;99.90;-3.20;96871.00;;;;5112272;28;20432;-66
2022/03/07 01:49:02;;;;;;;13.87;10.67;;;-3.30;99.90;-3.00;96874.00;;;;5103495;28;20431;-67
2022/03/07 01:51:52;;;;;;;14.50;10.07;;;-3.30;99.90;-3.30;96864.00;;;;5109270;28;20942;-65
2022/03/07 01:54:41;;;;;;;16.37;10.77;;;-3.30;99.90;-3.40;96863.00;;;;5104390;27;20464;-66
2022/03/07 01:57:30;;;;;;;15.77;10.30;;;-3.40;99.90;-3.40;96861.00;;;;5106287;28;20440;-66
2022/03/07 02:00:23;;;;;;;16.70;11.20;;;-3.40;99.90;-3.20;96857.00;;;;5108789;28;20412;-66
2022/03/07 02:03:12;;;;;;;15.70;11.27;;;-3.40;99.90;-3.30;96859.00;;;;5103586;28;20420;-66
2022/03/07 02:06:02;;;;;;;15.07;11.00;;;-3.40;99.90;-3.40;96854.00;;;;5105734;27;20967;-66
2022/03/07 02:08:54;;;;;;;20.80;11.93;;;-3.40;99.90;-3.30;96854.00;;;;5105093;28;20437;-67
2022/03/07 02:11:43;;;;;;;14.40;9.63;;;-3.40;99.90;-3.40;96852.00;;;;5106136;27;20430;-66
2022/03/07 02:14:34;;;;;;;15.73;11.27;;;-3.50;99.90;-3.60;96848.00;;;;5108149;27;20496;-66
2022/03/07 02:17:25;;;;;;;14.37;8.97;;;-3.50;99.90;-4.00;96849.00;;;;5103893;28;20429;-65
2022/03/07 02:20:15;;;;;;;14.43;10.73;;;-3.60;99.90;-4.30;96843.00;;;;5106593;28;20931;-65
2022/03/07 02:23:05;;;;;;;18.03;10.63;;;-3.70;99.90;-3.90;96847.00;;;;5109474;28;20429;-65
2022/03/07 02:25:54;;;;;;;15.10;10.97;;;-3.80;99.90;-3.70;96840.00;;;;5109905;28;20425;-66
2022/03/07 02:28:45;;;;;;;17.10;10.80;;;-3.70;99.90;-3.60;96852.00;;;;5108053;28;20437;-65
2022/03/07 02:31:34;;;;;;;14.23;10.43;;;-3.80;99.90;-3.70;96852.00;;;;5104064;28;20424;-66
2022/03/07 02:34:23;;;;;;;14.50;11.17;;;-3.80;99.90;-3.80;96851.00;;;;5105510;27;20447;-65
2022/03/07 02:37:12;;;;;;;16.80;9.93;;;-3.80;99.90;-3.80;96861.00;;;;5100665;28;20797;-65
2022/03/07 02:40:04;;;;;;;22.20;12.07;;;-3.90;99.90;-3.90;96859.00;;;;5107005;28;20477;-66
2022/03/07 02:42:57;;;;;;;18.67;11.97;;;-3.90;99.90;-4.00;96847.00;;;;5111210;27;20792;-66
2022/03/07 02:45:46;;;;;;;16.00;11.17;;;-3.90;99.90;-4.10;96852.00;;;;5110912;28;20429;-66
2022/03/07 02:48:35;;;;;;;16.27;11.87;;;-4.00;99.90;-4.10;96847.00;;;;5104636;28;20430;-66
2022/03/07 02:51:24;;;;;;;10.83;9.63;;;-4.00;99.90;-4.20;96855.00;;;;5099324;28;20417;-65
2022/03/07 02:54:13;;;;;;;16.57;10.67;;;-4.00;99.90;-3.90;96851.00;;;;5100955;28;20440;-65
2022/03/07 02:57:03;;;;;;;10.83;9.73;;;-4.00;99.90;-3.70;96865.00;;;;5104044;28;20444;-66
2022/03/07 02:59:52;;;;;;;15.37;10.33;;;-4.00;99.90;-3.80;96861.00;;;;5109502;28;20432;-66
2022/03/07 03:02:41;;;;;;;11.53;8.87;;;-3.90;99.90;-3.90;96872.00;;;;5114166;27;20822;-66
2022/03/07 03:05:30;;;;;;;12.40;10.50;;;-3.90;99.90;-4.20;96867.00;;;;5109932;27;20484;-66
2022/03/07 03:08:18;;;;;;;14.87;10.73;;;-4.00;99.90;-4.20;96868.00;;;;5107666;27;20448;-66
2022/03/07 03:11:07;;;;;;;13.47;9.77;;;-3.10;99.90;-4.30;96862.00;;;;5089577;28;20967;-66
2022/03/07 03:13:57;;;;;;;11.20;7.97;;;-4.10;99.90;-4.70;96863.00;;;;5107484;27;20447;-66
2022/03/07 03:16:46;;;;;;;7.27;4.80;;;-4.20;99.90;-5.10;96863.00;;;;5100584;28;20463;-66
2022/03/07 03:19:35;;;;;;;15.80;9.63;;;-4.30;99.90;-4.50;96867.00;;;;5105416;28;20429;-66
2022/03/07 03:22:24;;;;;;;13.93;10.17;;;-4.40;99.90;-4.30;96874.00;;;;5108976;28;20432;-66
2022/03/07 03:25:16;;;;;;;15.27;10.93;;;-4.40;99.90;-3.90;96871.00;;;;5103435;28;20954;-66
2022/03/07 03:28:05;;;;;;;13.80;10.00;;;-4.30;99.90;-4.10;96876.00;;;;5101895;27;20412;-66
2022/03/07 03:30:55;;;;;;;13.93;11.27;;;-4.20;99.90;-4.40;96877.00;;;;5100347;28;20421;-66
2022/03/07 03:33:44;;;;;;;13.07;11.43;;;-4.30;99.90;-4.40;96878.00;;;;5096511;28;20450;-66
2022/03/07 03:36:34;;;;;;;15.07;10.33;;;-4.30;99.90;-4.40;96882.00;;;;5107494;28;20498;-66
2022/03/07 03:39:22;;;;;;;17.03;10.17;;;-4.40;99.90;-4.70;96874.00;;;;5104400;28;20417;-66
2022/03/07 03:42:11;;;;;;;18.00;11.57;;;-4.50;99.90;-4.60;96875.00;;;;5105819;28;21158;-66
2022/03/07 03:45:00;;;;;;;17.20;11.60;;;-4.50;99.90;-4.50;96892.00;;;;5109258;28;20452;-66
2022/03/07 03:47:50;;;;;;;17.97;11.93;;;-4.40;99.90;-4.60;96875.00;;;;5108950;28;20463;-66
2022/03/07 03:50:39;;;;;;;11.10;8.50;;;-4.50;99.90;-4.90;96879.00;;;;5101175;27;20417;-66
2022/03/07 03:53:28;;;;;;;10.60;8.63;;;-4.60;99.90;-5.40;96884.00;;;;5101834;28;20432;-66
2022/03/07 03:56:17;;;;;;;16.97;10.10;;;-4.70;99.90;-4.90;96885.00;;;;5099253;28;20456;-66
2022/03/07 03:59:06;;;;;;;18.40;9.77;;;-4.80;99.90;-4.70;96891.00;;;;5103888;28;20428;-66
2022/03/07 04:01:55;;;;;;;17.93;9.37;;;-4.80;99.90;-4.60;96891.00;;;;5107038;28;20920;-66
2022/03/07 04:04:45;;;;;;;15.97;10.90;;;-4.70;99.90;-4.40;96897.00;;;;5109037;28;20445;-66
2022/03/07 04:07:33;;;;;;;15.37;10.33;;;-4.60;99.90;-4.40;96898.00;;;;5103433;28;20954;-66
2022/03/07 04:10:22;;;;;;;15.43;10.83;;;-4.60;99.90;-4.90;96897.00;;;;5108999;28;20436;-66
2022/03/07 04:13:11;;;;;;;14.60;10.97;;;-4.60;99.90;-4.90;96893.00;;;;5102819;28;20417;-68
2022/03/07 04:16:00;;;;;;;18.25;12.13;;;-4.60;99.90;-4.90;96894.00;;;;5113434;28;20468;-66
2022/03/07 04:18:48;;;;;;;16.58;10.95;;;-4.70;99.90;-4.90;96893.00;;;;5106927;27;20198;-66
2022/03/07 04:21:40;;;;;;;15.82;10.93;;;-4.70;99.90;-5.20;96897.00;;;;5113606;27;20198;-66
2022/03/07 04:24:30;;;;;;;13.83;10.17;;;-4.80;99.90;-5.10;96904.00;;;;5109869;27;20215;-66
2022/03/07 04:27:19;;;;;;;13.13;9.63;;;-4.80;99.90;-4.90;96900.00;;;;5104664;28;20949;-66
2022/03/07 04:30:09;;;;;;;19.83;12.45;;;-4.90;99.90;-4.90;96894.00;;;;5110433;28;20207;-66
2022/03/07 04:32:58;;;;;;;15.10;11.43;;;-4.90;99.90;-4.90;96906.00;;;;5102089;28;20701;-66
2022/03/07 04:35:47;;;;;;;13.25;10.25;;;-4.90;99.90;-5.00;96907.00;;;;5106239;27;20464;-66
2022/03/07 04:38:37;;;;;;;15.10;11.13;;;-5.00;99.90;-4.90;96907.00;;;;5106453;28;20196;-66
2022/03/07 04:41:27;;;;;;;12.17;9.30;;;-5.00;99.90;-4.90;96904.00;;;;5113372;27;20726;-66
2022/03/07 04:44:16;;;;;;;12.83;10.57;;;-5.00;99.90;-5.00;96906.00;;;;5108835;27;20811;-66
2022/03/07 04:47:05;;;;;;;15.52;9.77;;;-5.00;99.90;-4.80;96903.00;;;;5105372;28;20432;-66
2022/03/07 04:49:54;;;;;;;15.87;11.27;;;-4.90;99.90;-5.00;96913.00;;;;5111107;28;20210;-66
2022/03/07 04:52:43;;;;;;;13.70;9.63;;;-4.90;99.90;-5.30;96896.00;;;;5112820;27;20444;-67
2022/03/07 04:55:34;;;;;;;11.83;9.90;;;-5.00;99.90;-4.90;96890.00;;;;5105346;28;20455;-66
2022/03/07 04:58:22;;;;;;;9.27;8.30;;;-5.00;99.90;-4.90;96906.00;;;;5105496;28;20436;-66
2022/03/07 05:01:13;;;;;;;17.10;11.63;;;-4.90;99.90;-4.60;96906.00;;;;5108810;28;20897;-66
2022/03/07 05:04:02;;;;;;;19.43;12.70;;;-4.80;99.90;-4.80;96907.00;;;;5109957;28;20468;-67
2022/03/07 05:06:51;;;;;;;14.55;10.70;;;-4.80;99.90;-5.10;96904.00;;;;5101756;28;20424;-66
2022/03/07 05:09:40;;;;;;;16.45;10.88;;;-4.90;99.90;-5.30;96904.00;;;;5106335;28;20214;-66
2022/03/07 05:12:30;;;;;;;19.20;12.50;;;-5.00;99.90;-5.00;96912.00;;;;5108124;28;20202;-66
2022/03/07 05:15:19;;;;;;;15.60;9.43;;;-5.00;99.90;-4.90;96908.00;;;;5105132;28;20735;-66
2022/03/07 05:18:08;;;;;;;12.30;9.37;;;-4.90;99.90;-5.00;96906.00;;;;5101892;27;20471;-67
2022/03/07 05:20:57;;;;;;;14.90;10.90;;;-4.90;99.90;-5.40;96900.00;;;;5103994;28;20436;-66
2022/03/07 05:23:48;;;;;;;17.97;10.57;;;-4.90;99.90;-5.30;96906.00;;;;5104443;27;20441;-67
2022/03/07 05:26:38;;;;;;;15.43;10.70;;;-5.00;99.90;-5.40;96907.00;;;;5104614;28;20440;-66
2022/03/07 05:29:28;;;;;;;16.92;11.57;;;-5.10;99.90;-5.10;96915.00;;;;5102623;27;20196;-67
2022/03/07 05:32:17;;;;;;;14.10;9.90;;;-5.10;99.90;-4.80;96909.00;;;;5111368;27;20201;-66
2022/03/07 05:35:07;;;;;;;12.65;9.57;;;-5.00;99.90;-4.70;96913.00;;;;5110198;27;20211;-67
2022/03/07 05:37:56;;;;;;;18.13;11.75;;;-4.90;99.90;-4.60;96922.00;;;;5115564;27;20581;-67
2022/03/07 05:40:45;;;;;;;13.67;10.60;;;-4.10;99.90;-4.60;96918.00;;;;5110281;27;20570;-67
2022/03/07 05:43:34;;;;;;;24.90;13.73;;;-4.80;99.90;-5.10;96920.00;;;;5101255;27;20831;-67
2022/03/07 05:46:24;;;;;;;16.63;9.57;;;-4.80;99.90;-5.30;96914.00;;;;5107121;27;20425;-67
2022/03/07 05:49:13;;;;;;;19.10;10.23;;;-4.90;99.90;-5.20;96920.00;;;;5108516;27;20429;-67
2022/03/07 05:52:02;;;;;;;15.53;11.40;;;-5.00;99.90;-5.10;96916.00;;;;5106018;27;20437;-66
2022/03/07 05:54:51;;;;;;;17.10;11.10;;;-5.00;99.90;-5.40;96914.00;;;;5123290;27;20443;-66
2022/03/07 05:57:40;;;;;;;12.90;9.93;;;-5.10;99.90;-5.40;96909.00;;;;5097579;28;20454;-66
2022/03/07 06:00:29;;;;;;;20.98;10.00;;;-5.10;99.90;-5.30;96920.00;;;;5113924;27;20452;-67
2022/03/07 06:03:19;;;;;;;17.02;11.27;;;-5.20;99.90;-5.10;96921.00;;;;5110567;27;20796;-66
2022/03/07 06:06:08;;;;;;;16.13;11.57;;;-5.20;99.90;-5.00;96917.00;;;;5105667;27;20216;-66
2022/03/07 06:08:57;;;;;;;17.75;12.45;;;-5.10;99.90;-4.80;96916.00;;;;5106546;27;20207;-66
2022/03/07 06:11:46;;;;;;;9.77;7.37;;;-5.10;99.90;-5.10;96927.00;;;;5107867;27;20218;-67
2022/03/07 06:14:34;;;;;;;13.17;10.33;;;-5.00;99.90;-5.30;96910.00;;;;5108067;28;20433;-66
2022/03/07 06:17:23;;;;;;;13.57;10.87;;;-5.00;99.90;-5.30;96909.00;;;;5108780;28;20464;-66
2022/03/07 06:20:14;;;;;;;16.00;8.23;;;-5.00;99.90;-5.10;96915.00;;;;5109865;27;20461;-66
2022/03/07 06:23:04;;;;;;;12.33;6.43;;;-5.00;99.90;-5.00;96917.00;;;;5113739;27;20787;-66
2022/03/07 06:25:53;;;;;;;16.43;13.20;;;-4.90;99.90;-4.70;96917.00;;;;5102730;27;20453;-67
2022/03/07 06:28:42;;;;;;;16.43;11.60;;;-4.80;99.90;-4.80;96917.00;;;;5110251;27;20440;-66
2022/03/07 06:31:30;;;;;;;13.13;9.90;;;-4.70;99.90;-4.80;96919.00;;;;5106584;28;20792;-66
2022/03/07 06:34:19;;;;;;;20.13;10.57;;;-4.70;99.90;-4.60;96923.00;;;;5109182;27;20440;-66
2022/03/07 06:37:09;;;;;;;15.97;11.13;;;-4.70;99.90;-4.40;96935.00;;;;5109817;27;20458;-67
2022/03/07 06:39:58;;;;;;;30.90;19.07;;;-4.60;99.90;-4.30;96932.00;;;;5106368;28;20787;-66
2022/03/07 06:42:48;;;;;;;67.90;40.83;;;-4.50;99.90;-4.40;96933.00;;;;5104391;28;20416;-66
2022/03/07 06:45:36;;;;;;;24.37;17.13;;;-4.50;99.90;-4.20;96937.00;;;;5099311;27;20837;-67
2022/03/07 06:48:25;;;;;;;17.60;12.57;;;-4.40;99.90;-4.60;96927.00;;;;5106624;27;20432;-67
2022/03/07 06:51:14;;;;;;;20.37;13.90;;;-4.40;99.90;-4.30;96944.00;;;;5112192;27;20424;-67
2022/03/07 06:54:04;;;;;;;16.67;12.53;;;-4.40;99.90;-4.50;96935.00;;;;5114685;27;20460;-67
2022/03/07 06:56:53;;;;;;;15.23;11.93;;;-4.40;99.90;-4.60;96933.00;;;;5104867;27;20459;-67
2022/03/07 06:59:41;;;;;;;18.33;11.10;;;-4.30;99.90;-4.40;96927.00;;;;5101600;28;20441;-67
2022/03/07 07:02:30;;;;;;;16.50;12.60;;;-4.30;99.90;-4.10;96942.00;;;;5100360;28;20418;-67
2022/03/07 07:05:19;;;;;;;12.23;8.87;;;-4.30;99.90;-4.20;96942.00;;;;5103835;27;20433;-67
2022/03/07 07:08:07;;;;;;;19.50;12.53;;;-4.20;99.90;-3.90;96940.00;;;;5101238;28;20429;-67
2022/03/07 07:10:58;;;;;;;20.63;11.80;;;-4.10;99.90;-3.50;96943.00;;;;5101349;28;20410;-67
2022/03/07 07:13:47;;;;;;;14.30;10.87;;;-4.00;99.90;-3.50;96950.00;;;;5091684;28;20975;-67
2022/03/07 07:16:35;;;;;;;18.97;12.33;;;-3.80;99.90;-3.20;96946.00;;;;5090487;28;20796;-67
2022/03/07 07:19:24;;;;;;;17.23;9.83;;;-3.70;99.90;-3.10;96949.00;;;;5098652;27;20524;-67
2022/03/07 07:22:14;;;;;;;16.67;10.87;;;-3.50;99.90;-3.00;96938.00;;;;5102617;28;20432;-67
2022/03/07 07:25:05;;;;;;;21.67;14.73;;;-3.40;99.90;-2.70;96938.00;;;;5108985;28;20440;-67
2022/03/07 07:27:55;;;;;;;16.20;12.17;;;-3.20;99.90;-2.80;96938.00;;;;5105073;28;20417;-67
2022/03/07 07:30:46;;;;;;;18.03;12.53;;;-3.10;99.90;-2.60;96945.00;;;;5110088;28;20950;-67
2022/03/07 07:33:35;;;;;;;19.20;12.27;;;-2.90;99.90;-2.50;96941.00;;;;5110096;28;20440;-67
2022/03/07 07:36:23;;;;;;;19.57;12.77;;;-2.80;99.90;-2.40;96945.00;;;;5105970;28;20432;-67
2022/03/07 07:39:12;;;;;;;20.07;11.63;;;-2.70;99.90;-2.10;96948.00;;;;5097122;28;20476;-67
2022/03/07 07:42:01;;;;;;;16.10;11.33;;;-2.60;99.90;-1.20;96955.00;;;;5088446;28;20414;-67
2022/03/07 07:44:51;;;;;;;19.73;13.43;;;-2.40;99.90;-0.60;96953.00;;;;5088530;28;20438;-67
2022/03/07 07:47:40;;;;;;;18.80;12.87;;;-2.10;99.90;-0.40;96962.00;;;;5101971;28;20425;-68
2022/03/07 07:50:29;;;;;;;19.70;13.50;;;-1.70;99.90;-0.10;96965.00;;;;5105075;28;20417;-67
2022/03/07 07:53:18;;;;;;;20.27;12.23;;;-1.30;99.90;0.50;96979.00;;;;5100238;28;20427;-67
2022/03/07 07:56:07;;;;;;;24.83;15.63;;;-0.90;99.90;0.00;96957.00;;;;5105555;28;20420;-67
2022/03/07 07:58:57;;;;;;;23.37;14.20;;;-0.60;99.90;-0.20;96949.00;;;;5108754;28;20495;-68
2022/03/07 08:01:47;;;;;;;20.97;13.73;;;-0.50;99.90;0.90;96972.00;;;;5107379;28;20421;-68
2022/03/07 08:04:36;;;;;;;19.83;13.73;;;-0.30;99.90;1.10;96958.00;;;;5108904;28;20437;-68
2022/03/07 08:07:25;;;;;;;22.03;14.20;;;-0.10;99.90;0.90;96963.00;;;;5108411;28;20420;-68
2022/03/07 08:10:16;;;;;;;24.10;14.37;;;0.10;99.90;1.10;96966.00;;;;5108408;28;20429;-67
2022/03/07 08:13:05;;;;;;;21.10;13.80;;;0.30;99.90;1.10;96961.00;;;;5097443;28;20780;-68
2022/03/07 08:15:54;;;;;;;24.47;13.87;;;0.30;99.90;1.10;96967.00;;;;5109289;28;20436;-68
2022/03/07 08:18:44;;;;;;;21.97;14.27;;;0.40;99.90;1.40;96965.00;;;;5108946;28;20998;-68
2022/03/07 08:21:33;;;;;;;27.63;12.47;;;0.50;99.90;1.80;96958.00;;;;5107270;28;20433;-68
2022/03/07 08:24:23;;;;;;;20.37;13.30;;;0.70;99.90;1.10;96965.00;;;;5107760;28;20448;-68
2022/03/07 08:27:11;;;;;;;20.73;14.00;;;0.80;99.90;0.70;96948.00;;;;5106593;28;20421;-68
2022/03/07 08:30:00;;;;;;;19.83;13.73;;;0.70;97.70;1.40;96963.00;;;;5105539;28;20420;-68
2022/03/07 08:32:50;;;;;;;17.20;13.87;;;0.70;97.30;1.80;96969.00;;;;5097376;28;20943;-68
2022/03/07 08:35:40;;;;;;;17.80;11.83;;;0.80;98.10;1.90;96959.00;;;;5098361;28;20432;-68
2022/03/07 08:38:28;;;;;;;22.43;13.10;;;0.90;97.50;2.10;96964.00;;;;5103859;28;20463;-68
2022/03/07 08:41:17;;;;;;;21.03;14.43;;;1.10;97.20;2.10;96971.00;;;;5100816;28;20417;-68
2022/03/07 08:44:06;;;;;;;19.10;13.10;;;1.20;95.90;1.90;96964.00;;;;5107905;28;20468;-68
2022/03/07 08:46:55;;;;;;;24.00;15.87;;;1.30;94.40;2.20;96966.00;;;;5109236;28;20899;-68
2022/03/07 08:49:44;;;;;;;19.43;14.63;;;1.40;93.60;2.40;96968.00;;;;5109117;28;20447;-68
2022/03/07 08:52:34;;;;;;;17.93;13.20;;;1.50;92.50;2.80;96970.00;;;;5108706;28;20420;-68
2022/03/07 08:55:22;;;;;;;19.33;13.87;;;1.60;92.60;3.00;96972.00;;;;5107462;28;20440;-68
2022/03/07 08:58:11;;;;;;;19.13;13.83;;;1.80;92.10;3.10;96964.00;;;;5109385;28;20456;-68
2022/03/07 09:01:00;;;;;;;18.83;13.37;;;2.00;91.40;3.40;96976.00;;;;5090503;28;20421;-68
2022/03/07 09:03:49;;;;;;;16.83;13.00;;;2.20;90.80;3.50;96964.00;;;;5100515;28;20495;-68
2022/03/07 09:06:38;;;;;;;19.80;15.17;;;2.30;89.80;3.40;96965.00;;;;5107344;28;20432;-68
2022/03/07 09:09:28;;;;;;;18.23;12.63;;;2.40;87.50;2.10;96949.00;;;;5104855;28;20433;-66
2022/03/07 09:12:22;;;;;;;17.43;11.97;;;2.40;81.10;2.40;96951.00;;;;5102772;28;20425;-65
2022/03/07 09:15:11;;;;;;;19.00;11.97;;;2.30;80.70;3.30;96962.00;;;;5095063;27;21034;-66
2022/03/07 09:18:00;;;;;;;22.20;14.63;;;2.30;82.40;3.90;96968.00;;;;5092991;28;20422;-68
2022/03/07 09:20:49;;;;;;;22.83;14.70;;;2.50;83.30;3.70;96970.00;;;;5092669;28;20414;-68
2022/03/07 09:23:38;;;;;;;22.27;13.40;;;2.70;81.40;4.00;96964.00;;;;5100558;28;20440;-68
2022/03/07 09:26:28;;;;;;;17.00;13.40;;;2.90;79.80;3.70;96954.00;;;;5105379;28;20421;-68
2022/03/07 09:29:18;;;;;;;19.27;13.27;;;3.10;79.20;3.90;96954.00;;;;5094231;28;20504;-68
2022/03/07 09:32:08;;;;;;;19.07;13.23;;;3.10;77.20;4.40;96949.00;;;;5100382;28;20421;-68
2022/03/07 09:34:57;;;;;;;24.57;15.07;;;3.30;77.40;5.00;96957.00;;;;5110025;28;20448;-68
2022/03/07 09:37:46;;;;;;;17.60;13.53;;;3.60;78.50;5.30;96946.00;;;;5108742;28;20440;-69
2022/03/07 09:40:34;;;;;;;19.43;11.57;;;3.80;77.50;5.00;96952.00;;;;5111234;27;20421;-68
2022/03/07 09:43:25;;;;;;;19.07;11.83;;;4.00;73.90;5.10;96945.00;;;;5111292;28;20823;-66
2022/03/07 09:46:14;;;;;;;17.27;12.40;;;4.20;72.90;5.30;96947.00;;;;5113126;27;20440;-65
2022/03/07 09:49:06;;;;;;;18.03;12.40;;;4.30;70.90;5.60;96935.00;;;;5111239;28;20420;-66
2022/03/07 09:51:56;;;;;;;17.67;12.70;;;4.50;70.50;6.50;96961.00;;;;5110845;27;20439;-66
2022/03/07 09:54:45;;;;;;;17.60;12.17;;;4.70;70.60;6.50;96948.00;;;;5101236;28;20218;-66
2022/03/07 09:57:34;;;;;;;16.70;9.77;;;4.90;68.60;6.10;96936.00;;;;5106815;27;20215;-66
2022/03/07 10:00:24;;;;;;;13.27;10.97;;;5.00;66.70;6.60;96953.00;;;;5099480;28;20219;-66
2022/03/07 10:03:15;;;;;;;16.90;11.20;;;5.20;66.10;6.20;96958.00;;;;5113081;27;20199;-66
2022/03/07 10:06:12;;;;;;;19.37;12.07;;;5.20;65.60;5.90;96922.00;;;;5110236;28;20202;-66
2022/03/07 10:09:01;;;;;;;17.30;11.53;;;5.10;64.10;6.40;96943.00;;;;5091845;28;20210;-66
2022/03/07 10:11:53;;;;;;;11.80;8.93;;;5.30;62.50;5.10;96926.00;;;;5089609;28;20196;-66
2022/03/07 10:14:44;;;;;;;14.07;10.83;;;5.30;60.00;5.80;96931.00;;;;5091543;28;20608;-66
2022/03/07 10:17:35;;;;;;;14.13;10.53;;;5.20;59.70;6.20;96929.00;;;;5091126;28;20197;-55
2022/03/07 10:20:26;;;;;;;15.20;10.37;;;5.30;60.30;6.30;96922.00;;;;5095495;28;20238;-65
2022/03/07 10:23:15;;;;;;;14.93;10.60;;;5.20;59.20;6.90;96923.00;;;;5101604;28;20201;-66
2022/03/07 10:26:08;;;;;;;14.27;10.53;;;5.50;58.90;6.70;96907.00;;;;5102034;28;20214;-66
2022/03/07 10:28:59;;;;;;;12.67;9.47;;;5.70;57.90;6.80;96939.00;;;;5094314;28;20268;-66
2022/03/07 10:32:17;;;;;;;12.77;10.40;;;5.70;58.00;6.50;96951.00;;;;5090046;28;20213;-66
2022/03/07 10:35:09;;;;;;;11.10;9.53;;;5.70;58.20;6.00;96929.00;;;;5091680;28;20223;-66
2022/03/07 10:38:01;;;;;;;12.83;10.10;;;5.80;56.00;5.60;96919.00;;;;5114865;27;20673;-67
2022/03/07 10:40:55;;;;;;;13.80;8.93;;;5.70;55.90;7.10;96917.00;;;;5109256;27;20233;-66
2022/03/07 10:43:48;;;;;;;14.23;10.50;;;5.70;56.50;7.10;96934.00;;;;5111362;27;20230;-66
2022/03/07 10:46:38;;;;;;;11.30;9.77;;;5.90;56.70;6.80;96942.00;;;;5111283;28;20227;-66
2022/03/07 10:49:27;;;;;;;12.60;9.20;;;5.90;56.30;6.80;96945.00;;;;5102165;27;20200;-66
2022/03/07 10:52:17;;;;;;;11.63;8.40;;;5.90;55.80;6.70;96916.00;;;;5103324;28;20207;-66
2022/03/07 10:55:07;;;;;;;12.40;9.60;;;5.90;55.90;6.70;96918.00;;;;5106113;28;20234;-66
2022/03/07 10:58:07;;;;;;;12.43;9.10;;;5.80;55.70;7.80;96890.00;;;;5090171;28;20212;-66
2022/03/07 11:01:00;;;;;;;13.23;9.23;;;6.00;55.60;6.00;96909.00;;;;5090149;28;20223;-66
2022/03/07 11:03:49;;;;;;;5.40;4.90;;;6.30;53.80;4.90;96902.00;;;;5100081;28;20210;-66
2022/03/07 11:06:39;;;;;;;11.67;9.47;;;6.10;52.40;5.70;96905.00;;;;5101643;28;20624;-66
2022/03/07 11:09:29;;;;;;;17.50;9.77;;;5.70;53.50;7.00;96871.00;;;;5098117;27;20195;-66
2022/03/07 11:12:18;;;;;;;13.10;9.13;;;5.80;54.10;6.50;96866.00;;;;5094918;28;20195;-66
2022/03/07 11:15:09;;;;;;;12.70;9.23;;;6.20;52.10;8.50;96857.00;;;;5098864;28;20218;-66
2022/03/07 11:17:59;;;;;;;10.40;9.13;;;6.70;53.10;9.50;96866.00;;;;5096638;28;20215;-67
2022/03/07 11:20:48;;;;;;;11.77;8.97;;;7.30;53.00;10.40;96897.00;;;;5110578;27;20227;-66
2022/03/07 11:23:37;;;;;;;12.13;8.97;;;8.00;52.50;9.70;96854.00;;;;5109728;28;20229;-58
2022/03/07 11:26:27;;;;;;;10.87;9.40;;;8.40;50.30;10.00;96849.00;;;;5101272;28;20556;-66
2022/03/07 11:29:17;;;;;;;11.13;8.53;;;8.80;49.40;9.70;96828.00;;;;5098239;28;20195;-67
2022/03/07 11:32:10;;;;;;;10.67;9.47;;;8.90;48.90;11.20;96842.00;;;;5102686;28;20197;-67
2022/03/07 11:35:02;;;;;;;13.27;8.53;;;9.40;49.70;11.00;96834.00;;;;5109232;28;20214;-67
2022/03/07 11:37:50;;;;;;;10.23;9.27;;;9.70;48.00;11.60;96838.00;;;;5096349;28;20206;-66
2022/03/07 11:40:57;;;;;;;9.67;7.90;;;10.30;46.90;11.90;96821.00;;;;5099167;28;20233;-67
2022/03/07 11:43:51;;;;;;;12.23;9.30;;;10.60;46.80;12.30;96828.00;;;;5104483;28;20218;-66
2022/03/07 11:46:44;;;;;;;10.47;8.77;;;10.80;46.40;11.40;96823.00;;;;5106613;28;20227;-66
2022/03/07 11:49:33;;;;;;;6.27;4.03;;;10.80;45.00;8.50;96796.00;;;;5102418;28;20205;-68
2022/03/07 11:52:24;;;;;;;10.53;8.10;;;10.90;42.60;9.50;96820.00;;;;5097170;28;20196;-68
2022/03/07 11:55:16;;;;;;;9.40;8.33;;;10.30;42.60;12.00;96811.00;;;;5105075;28;20215;-68
2022/03/07 11:58:06;;;;;;;9.73;8.73;;;10.60;44.00;9.60;96799.00;;;;5095055;28;20697;-68
2022/03/07 12:01:08;;;;;;;9.80;7.00;;;10.40;41.60;11.90;96818.00;;;;5109852;28;20304;-68
2022/03/07 12:04:08;;;;;;;10.73;7.90;;;10.60;43.20;8.70;96793.00;;;;5109132;28;20250;-68
2022/03/07 12:06:56;;;;;;;8.20;7.00;;;10.50;41.00;11.00;96804.00;;;;5099905;28;20199;-68
2022/03/07 12:09:45;;;;;;;9.63;8.40;;;10.30;42.70;11.60;96795.00;;;;5106389;28;20206;-68
2022/03/07 12:12:34;;;;;;;9.20;7.77;;;10.80;43.60;12.30;96793.00;;;;5100421;28;20674;-69
2022/03/07 12:15:23;;;;;;;8.70;7.83;;;11.20;42.80;13.40;96807.00;;;;5107991;28;20221;-68
2022/03/07 12:18:14;;;;;;;8.83;7.87;;;11.60;42.20;13.20;96800.00;;;;5108169;28;20198;-68
2022/03/07 12:21:03;;;;;;;10.10;8.87;;;12.10;41.50;10.80;96790.00;;;;5096800;28;20215;-69
2022/03/07 12:23:52;;;;;;;10.77;8.10;;;11.90;39.00;12.40;96777.00;;;;5103552;28;20257;-69
2022/03/07 12:26:46;;;;;;;10.00;8.17;;;11.90;39.90;13.90;96788.00;;;;5107115;28;20186;-69